Time;durP1;ratioP1;P1;durP2;ratioP2;P2;SDS_P1;SDS_P2;PMS_P1;PMS_P2;Temp;Humidity;BMP_temperature;BMP_pressure;BME280_temperature;BME280_humidity;BME280_pressure;Samples;Min_cycle;Max_cycle;Signal;HPM_P1;HPM_P2
2021/11/24 00:00:50;;;;;;;18.33;15.10;;;3.30;99.90;;;;;;5015764;28;20225;-77
2021/11/24 00:03:16;;;;;;;21.60;15.70;;;3.20;99.90;;;;;;5012126;28;20551;-77
2021/11/24 00:05:41;;;;;;;19.13;15.43;;;3.10;99.90;;;;;;5014808;28;20187;-77
2021/11/24 00:08:07;;;;;;;17.80;15.67;;;3.10;99.90;;;;;;5016199;28;20601;-77
2021/11/24 00:10:35;;;;;;;17.23;15.07;;;3.10;99.90;;;;;;5015880;28;20187;-77
2021/11/24 00:13:02;;;;;;;16.37;14.67;;;3.10;99.90;;;;;;5014583;28;20223;-77
2021/11/24 00:15:27;;;;;;;20.00;16.00;;;3.10;99.90;;;;;;5015896;28;20181;-77
2021/11/24 00:17:53;;;;;;;17.87;15.47;;;3.00;99.90;;;;;;5014414;28;20175;-77
2021/11/24 00:20:20;;;;;;;17.03;15.23;;;2.90;99.90;;;;;;5015396;28;20286;-77
2021/11/24 00:22:45;;;;;;;22.40;18.43;;;3.00;99.90;;;;;;5014208;28;20176;-77
2021/11/24 00:25:11;;;;;;;21.33;17.03;;;2.90;99.90;;;;;;5012160;28;20251;-78
2021/11/24 00:27:37;;;;;;;23.97;18.27;;;3.00;99.90;;;;;;5001496;28;20179;-77
2021/11/24 00:30:05;;;;;;;22.30;17.23;;;2.90;99.90;;;;;;5015304;28;20215;-77
2021/11/24 00:32:30;;;;;;;25.73;18.83;;;2.90;99.90;;;;;;5011585;28;20230;-77
2021/11/24 00:34:56;;;;;;;23.20;18.80;;;2.90;99.90;;;;;;4995620;28;20556;-77
2021/11/24 00:37:22;;;;;;;28.73;20.40;;;3.00;99.90;;;;;;4995543;28;20187;-77
2021/11/24 00:39:48;;;;;;;24.17;18.80;;;2.90;99.90;;;;;;4995451;28;20211;-77
2021/11/24 00:42:14;;;;;;;27.57;19.30;;;2.90;99.90;;;;;;4995457;28;20211;-77
2021/11/24 00:44:39;;;;;;;24.60;18.93;;;3.00;99.90;;;;;;4993944;28;20228;-76
2021/11/24 00:47:05;;;;;;;23.40;18.30;;;3.10;99.90;;;;;;4995428;28;20177;-76
2021/11/24 00:49:30;;;;;;;24.73;18.20;;;3.10;99.90;;;;;;4998195;28;20672;-76
2021/11/24 00:51:56;;;;;;;22.17;17.03;;;3.20;99.90;;;;;;5007625;28;20179;-77
2021/11/24 00:54:22;;;;;;;22.23;17.30;;;4.10;99.90;;;;;;5014527;28;20199;-77
2021/11/24 00:56:48;;;;;;;18.33;15.47;;;3.10;99.90;;;;;;5009566;28;20547;-77
2021/11/24 00:59:14;;;;;;;18.60;15.23;;;3.00;99.90;;;;;;5004687;28;20179;-76
2021/11/24 01:01:39;;;;;;;17.20;14.47;;;3.00;99.90;;;;;;5013493;28;20175;-76
2021/11/24 01:04:05;;;;;;;18.23;14.53;;;2.90;99.90;;;;;;5013473;28;20658;-76
2021/11/24 01:06:31;;;;;;;16.07;13.90;;;2.90;99.90;;;;;;5014643;28;20171;-77
2021/11/24 01:08:56;;;;;;;17.00;13.93;;;3.00;99.90;;;;;;5011583;28;20176;-76
2021/11/24 01:11:22;;;;;;;17.47;13.80;;;2.90;99.90;;;;;;5014034;28;20236;-76
2021/11/24 01:13:48;;;;;;;16.57;14.30;;;3.00;99.90;;;;;;4998271;28;20203;-77
2021/11/24 01:16:15;;;;;;;21.27;15.53;;;3.00;99.90;;;;;;4995365;28;20176;-76
2021/11/24 01:18:41;;;;;;;17.80;14.50;;;2.90;99.90;;;;;;4995227;28;20669;-75
2021/11/24 01:21:07;;;;;;;21.27;15.43;;;3.40;99.90;;;;;;4994835;28;20569;-76
2021/11/24 01:23:33;;;;;;;20.37;15.87;;;2.90;99.90;;;;;;4993302;28;20202;-76
2021/11/24 01:25:58;;;;;;;21.63;16.27;;;2.90;99.90;;;;;;4994863;28;20179;-77
2021/11/24 01:28:25;;;;;;;22.20;16.40;;;2.90;99.90;;;;;;4994655;28;20603;-77
2021/11/24 01:30:50;;;;;;;19.63;15.40;;;2.80;99.90;;;;;;4994826;28;20179;-76
2021/11/24 01:33:16;;;;;;;19.20;15.43;;;2.80;99.90;;;;;;4995851;28;20295;-76
2021/11/24 01:35:42;;;;;;;19.80;14.67;;;2.80;99.90;;;;;;5001953;28;20247;-77
2021/11/24 01:38:08;;;;;;;17.93;14.53;;;2.70;99.90;;;;;;4996980;28;20184;-77
2021/11/24 01:40:34;;;;;;;18.93;14.50;;;2.70;99.90;;;;;;5011315;28;20731;-77
2021/11/24 01:42:59;;;;;;;17.33;14.20;;;2.70;99.90;;;;;;5008689;28;20286;-76
2021/11/24 01:45:25;;;;;;;18.13;13.93;;;2.70;99.90;;;;;;4996292;28;20184;-79
2021/11/24 01:47:52;;;;;;;17.23;14.63;;;2.70;99.90;;;;;;5006026;28;20175;-77
2021/11/24 01:50:18;;;;;;;15.93;13.10;;;2.60;99.90;;;;;;4998003;28;20230;-77
2021/11/24 01:52:45;;;;;;;17.00;13.97;;;3.70;99.90;;;;;;4995661;28;20183;-77
2021/11/24 01:55:12;;;;;;;18.03;13.90;;;2.60;99.90;;;;;;5006428;28;20651;-77
2021/11/24 01:57:44;;;;;;;17.83;13.77;;;2.70;99.90;;;;;;5001881;28;20179;-77
2021/11/24 02:00:10;;;;;;;17.77;13.73;;;2.70;99.90;;;;;;4999286;28;20766;-77
2021/11/24 02:02:36;;;;;;;17.87;13.83;;;2.70;99.90;;;;;;4994506;28;20219;-77
2021/11/24 02:05:02;;;;;;;16.33;13.53;;;2.70;99.90;;;;;;4993144;28;20574;-76
2021/11/24 02:07:28;;;;;;;18.67;14.50;;;2.70;99.90;;;;;;4992076;28;20275;-77
2021/11/24 02:09:54;;;;;;;16.67;13.50;;;2.70;99.90;;;;;;4994316;28;20191;-77
2021/11/24 02:12:19;;;;;;;16.60;14.17;;;2.80;99.90;;;;;;4994116;28;20182;-76
2021/11/24 02:14:45;;;;;;;22.63;15.53;;;2.80;99.90;;;;;;4994016;28;20282;-77
2021/11/24 02:17:16;;;;;;;19.93;14.63;;;2.80;99.90;;;;;;4992313;28;20180;-77
2021/11/24 02:19:43;;;;;;;16.73;14.07;;;2.80;99.90;;;;;;4993919;28;20207;-77
2021/11/24 02:22:09;;;;;;;21.13;15.37;;;3.00;99.90;;;;;;4994279;28;20178;-77
2021/11/24 02:24:37;;;;;;;18.67;14.00;;;2.70;99.90;;;;;;4992660;28;20197;-77
2021/11/24 02:27:06;;;;;;;20.20;13.77;;;2.70;99.90;;;;;;4992785;28;20180;-76
2021/11/24 02:29:32;;;;;;;18.83;14.27;;;2.60;99.90;;;;;;4995570;28;20658;-77
2021/11/24 02:32:00;;;;;;;23.20;16.30;;;2.60;99.90;;;;;;4994479;28;20270;-76
2021/11/24 02:34:27;;;;;;;24.60;17.10;;;2.70;99.90;;;;;;4993964;28;20246;-76
2021/11/24 02:36:54;;;;;;;17.63;13.80;;;2.90;99.90;;;;;;4992747;28;20175;-76
2021/11/24 02:39:20;;;;;;;23.37;15.30;;;2.60;99.90;;;;;;4993722;28;20287;-77
2021/11/24 02:41:45;;;;;;;20.10;14.77;;;2.60;99.90;;;;;;4994778;28;20762;-78
2021/11/24 02:44:14;;;;;;;19.37;14.47;;;2.70;99.90;;;;;;5009741;28;20269;-76
2021/11/24 02:46:40;;;;;;;16.83;13.87;;;3.50;99.90;;;;;;5001548;28;20176;-77
2021/11/24 02:49:05;;;;;;;20.33;14.33;;;2.70;99.90;;;;;;4995954;28;20232;-77
2021/11/24 02:51:31;;;;;;;17.00;13.60;;;3.30;99.90;;;;;;4995384;28;20652;-78
2021/11/24 02:53:57;;;;;;;17.73;13.73;;;2.70;99.90;;;;;;4996010;28;20266;-77
2021/11/24 02:56:22;;;;;;;28.53;15.90;;;2.70;99.90;;;;;;4995186;28;20183;-77
2021/11/24 02:58:48;;;;;;;19.23;14.17;;;2.60;99.90;;;;;;4993752;28;20184;-77
2021/11/24 03:01:13;;;;;;;37.37;19.20;;;2.60;99.90;;;;;;4993690;28;20602;-77
2021/11/24 03:03:39;;;;;;;16.87;13.47;;;2.60;99.90;;;;;;4994935;28;20250;-77
2021/11/24 03:06:05;;;;;;;21.17;14.60;;;2.60;99.90;;;;;;4996801;28;20182;-76
2021/11/24 03:08:30;;;;;;;27.73;17.50;;;2.70;99.90;;;;;;4998733;28;20184;-76
2021/11/24 03:10:56;;;;;;;16.10;13.73;;;2.80;99.90;;;;;;4996879;28;20172;-77
2021/11/24 03:13:22;;;;;;;30.53;19.87;;;3.00;99.90;;;;;;4997451;28;20196;-76
2021/11/24 03:15:47;;;;;;;61.40;29.30;;;2.60;99.90;;;;;;5000585;28;20529;-78
2021/11/24 03:18:13;;;;;;;47.10;25.60;;;2.60;99.90;;;;;;4998066;28;20176;-77
2021/11/24 03:20:39;;;;;;;18.63;14.43;;;2.60;99.90;;;;;;4999692;28;20212;-78
2021/11/24 03:23:06;;;;;;;19.70;15.17;;;2.70;99.90;;;;;;4999176;28;20246;-77
2021/11/24 03:25:32;;;;;;;15.80;13.40;;;3.70;99.90;;;;;;5012629;28;20555;-78
2021/11/24 03:27:58;;;;;;;15.57;12.30;;;2.70;99.90;;;;;;4999574;28;20183;-77
2021/11/24 03:30:26;;;;;;;16.33;13.33;;;2.70;99.90;;;;;;4998097;28;20263;-77
2021/11/24 03:32:53;;;;;;;16.23;13.77;;;2.70;99.90;;;;;;4997149;28;20188;-77
2021/11/24 03:35:21;;;;;;;16.23;13.10;;;2.70;99.90;;;;;;4995529;28;20187;-77
2021/11/24 03:37:47;;;;;;;16.20;12.93;;;2.70;99.90;;;;;;4995383;28;20207;-77
2021/11/24 03:40:15;;;;;;;17.67;13.60;;;2.70;99.90;;;;;;4996821;28;20199;-77
2021/11/24 03:42:44;;;;;;;16.70;13.30;;;2.70;99.90;;;;;;4996393;28;20176;-78
2021/11/24 03:45:10;;;;;;;18.07;14.43;;;2.70;99.90;;;;;;4996282;28;20587;-78
2021/11/24 03:47:37;;;;;;;15.47;13.07;;;2.70;99.90;;;;;;5004138;28;20176;-78
2021/11/24 03:50:04;;;;;;;16.63;13.10;;;2.70;99.90;;;;;;5015343;28;20233;-77
2021/11/24 03:52:29;;;;;;;14.97;12.97;;;2.70;99.90;;;;;;5016326;28;20179;-76
2021/11/24 03:54:55;;;;;;;16.73;13.27;;;2.70;99.90;;;;;;4998638;28;20214;-77
2021/11/24 03:57:21;;;;;;;15.53;12.67;;;2.70;99.90;;;;;;4995244;28;20188;-76
2021/11/24 03:59:46;;;;;;;15.53;12.97;;;2.70;99.90;;;;;;5004392;28;20213;-77
2021/11/24 04:02:12;;;;;;;14.33;11.37;;;2.70;99.90;;;;;;5011745;28;20516;-76
2021/11/24 04:04:38;;;;;;;15.97;12.77;;;2.70;99.90;;;;;;5005763;28;20749;-77
2021/11/24 04:07:03;;;;;;;12.80;11.50;;;2.70;99.90;;;;;;4994575;28;20184;-77
2021/11/24 04:09:29;;;;;;;16.33;13.07;;;2.70;99.90;;;;;;5014528;28;20175;-77
2021/11/24 04:11:55;;;;;;;15.20;12.43;;;2.70;99.90;;;;;;5014624;28;20172;-76
2021/11/24 04:14:20;;;;;;;13.97;12.47;;;2.70;99.90;;;;;;5015185;28;20249;-77
2021/11/24 04:16:46;;;;;;;15.37;13.23;;;2.70;99.90;;;;;;5015107;28;20186;-77
2021/11/24 04:19:11;;;;;;;13.80;12.30;;;2.70;99.90;;;;;;5011841;28;20173;-77
2021/11/24 04:21:37;;;;;;;23.50;16.90;;;2.80;99.90;;;;;;5015460;28;20208;-76
2021/11/24 04:24:03;;;;;;;23.63;15.40;;;2.70;99.90;;;;;;5015756;28;20278;-76
2021/11/24 04:26:29;;;;;;;46.10;25.13;;;2.70;99.90;;;;;;5013947;28;20171;-77
2021/11/24 04:28:54;;;;;;;29.70;17.53;;;2.70;99.90;;;;;;5007322;28;20168;-76
2021/11/24 04:31:20;;;;;;;16.17;12.37;;;2.70;99.90;;;;;;5005437;28;20175;-77
2021/11/24 04:33:46;;;;;;;30.17;21.70;;;2.70;99.90;;;;;;5016588;28;20289;-79
2021/11/24 04:36:12;;;;;;;14.97;12.40;;;2.80;99.90;;;;;;5016465;28;20228;-77
2021/11/24 04:38:37;;;;;;;16.90;13.23;;;3.30;99.90;;;;;;5016287;28;20191;-77
2021/11/24 04:41:03;;;;;;;13.87;11.77;;;2.80;99.90;;;;;;5015312;28;20206;-77
2021/11/24 04:43:32;;;;;;;14.00;12.17;;;2.80;99.90;;;;;;5014989;28;20214;-77
2021/11/24 04:46:00;;;;;;;13.97;11.53;;;2.70;99.90;;;;;;5015076;28;20182;-77
2021/11/24 04:48:26;;;;;;;15.03;12.70;;;2.70;99.90;;;;;;5014983;28;20221;-77
2021/11/24 04:50:52;;;;;;;13.90;11.77;;;2.80;99.90;;;;;;5014954;28;20198;-77
2021/11/24 04:53:18;;;;;;;16.57;12.87;;;2.80;99.90;;;;;;5015444;28;20235;-78
2021/11/24 04:55:44;;;;;;;15.80;12.53;;;2.80;99.90;;;;;;5016483;28;20175;-79
2021/11/24 04:58:10;;;;;;;15.27;12.83;;;2.80;99.90;;;;;;4995290;28;20184;-77
2021/11/24 05:00:36;;;;;;;14.67;12.80;;;2.80;99.90;;;;;;4995914;28;20262;-78
2021/11/24 05:03:02;;;;;;;15.30;13.17;;;2.80;99.90;;;;;;5011314;28;20270;-77
2021/11/24 05:05:29;;;;;;;14.27;12.73;;;2.80;99.90;;;;;;5013362;28;20269;-77
2021/11/24 05:07:58;;;;;;;19.97;13.53;;;2.80;99.90;;;;;;4999384;28;20163;-78
2021/11/24 05:10:25;;;;;;;16.43;13.00;;;2.80;99.90;;;;;;5013224;28;20259;-78
2021/11/24 05:12:51;;;;;;;18.13;12.17;;;2.80;99.90;;;;;;5014222;28;20179;-77
2021/11/24 05:15:21;;;;;;;15.90;13.00;;;2.90;99.90;;;;;;5013725;28;20613;-77
2021/11/24 05:17:50;;;;;;;15.77;12.63;;;2.80;99.90;;;;;;5007413;28;20226;-77
2021/11/24 05:20:19;;;;;;;16.80;13.00;;;2.90;99.90;;;;;;4994806;28;20227;-77
2021/11/24 05:22:48;;;;;;;16.20;13.33;;;2.90;99.90;;;;;;4993040;28;20181;-77
2021/11/24 05:25:14;;;;;;;16.43;13.50;;;2.90;99.90;;;;;;4994709;28;20170;-77
2021/11/24 05:27:39;;;;;;;16.83;14.30;;;2.90;99.90;;;;;;4995171;28;20182;-77
2021/11/24 05:30:06;;;;;;;15.43;13.60;;;2.90;99.90;;;;;;4993659;28;20667;-77
2021/11/24 05:32:32;;;;;;;17.17;14.33;;;2.90;99.90;;;;;;4993195;28;20238;-77
2021/11/24 05:34:57;;;;;;;17.93;14.93;;;3.00;99.90;;;;;;4994841;28;20689;-77
2021/11/24 05:37:23;;;;;;;17.00;14.60;;;3.00;99.90;;;;;;4995101;28;20654;-77
2021/11/24 05:39:48;;;;;;;16.70;13.87;;;2.90;99.90;;;;;;4994298;28;20590;-76
2021/11/24 05:42:14;;;;;;;17.73;14.40;;;3.00;99.90;;;;;;4994396;28;20187;-78
2021/11/24 05:44:40;;;;;;;17.70;14.57;;;2.90;99.90;;;;;;4994788;28;20211;-77
2021/11/24 05:47:11;;;;;;;19.67;15.17;;;3.00;99.90;;;;;;4994256;28;20264;-77
2021/11/24 05:49:38;;;;;;;20.60;14.87;;;2.80;99.90;;;;;;4992652;28;20612;-77
2021/11/24 05:52:05;;;;;;;21.33;15.03;;;2.90;99.90;;;;;;4993368;28;20176;-77
2021/11/24 05:54:30;;;;;;;18.20;14.50;;;3.00;99.90;;;;;;4994380;28;20614;-77
2021/11/24 05:56:56;;;;;;;19.73;15.33;;;3.60;99.90;;;;;;4999251;28;20175;-78
2021/11/24 05:59:22;;;;;;;18.60;15.10;;;3.00;99.90;;;;;;4996728;28;20187;-78
2021/11/24 06:01:47;;;;;;;16.23;13.67;;;3.00;99.90;;;;;;4996741;28;20193;-77
2021/11/24 06:04:13;;;;;;;17.47;14.07;;;3.00;99.90;;;;;;5010769;28;20212;-77
2021/11/24 06:06:39;;;;;;;17.83;14.40;;;2.90;99.90;;;;;;5011485;28;20191;-78
2021/11/24 06:09:06;;;;;;;17.33;14.53;;;2.90;99.90;;;;;;5012793;28;20183;-77
2021/11/24 06:11:32;;;;;;;19.27;14.93;;;2.90;99.90;;;;;;5009496;28;20197;-77
2021/11/24 06:13:58;;;;;;;19.53;14.93;;;2.90;99.90;;;;;;4992417;28;20715;-77
2021/11/24 06:16:24;;;;;;;19.00;15.30;;;2.90;99.90;;;;;;4992944;28;20192;-78
2021/11/24 06:18:49;;;;;;;18.37;14.63;;;2.90;99.90;;;;;;4991796;28;20184;-78
2021/11/24 06:21:21;;;;;;;18.40;14.63;;;2.90;99.90;;;;;;4993183;28;20204;-77
2021/11/24 06:23:48;;;;;;;19.10;14.27;;;2.90;99.90;;;;;;4993731;28;20198;-77
2021/11/24 06:26:15;;;;;;;17.57;14.37;;;3.00;99.90;;;;;;4995767;28;20171;-77
2021/11/24 06:28:43;;;;;;;18.27;14.83;;;3.00;99.90;;;;;;4993551;28;20184;-76
2021/11/24 06:31:09;;;;;;;21.53;16.30;;;3.20;99.90;;;;;;4993763;28;20642;-76
2021/11/24 06:33:35;;;;;;;17.00;13.97;;;3.10;99.90;;;;;;4996029;28;20570;-77
2021/11/24 06:36:01;;;;;;;20.10;16.70;;;3.10;99.90;;;;;;5002566;28;20191;-77
2021/11/24 06:38:26;;;;;;;17.17;14.50;;;3.10;99.90;;;;;;5003228;28;20179;-77
2021/11/24 06:40:52;;;;;;;19.47;14.60;;;3.10;99.90;;;;;;5000431;28;20618;-77
2021/11/24 06:43:18;;;;;;;19.10;14.57;;;3.10;99.90;;;;;;5016675;28;20227;-78
2021/11/24 06:45:44;;;;;;;20.03;15.20;;;3.20;99.90;;;;;;5019297;28;20175;-77
2021/11/24 06:48:11;;;;;;;17.13;14.57;;;3.20;99.90;;;;;;5016780;28;20202;-78
2021/11/24 06:50:37;;;;;;;18.57;14.67;;;3.20;99.90;;;;;;5016662;28;20203;-78
2021/11/24 06:53:03;;;;;;;15.93;14.03;;;3.20;99.90;;;;;;5006840;28;20209;-76
2021/11/24 06:55:29;;;;;;;17.00;14.33;;;3.30;99.90;;;;;;5015919;28;20187;-78
2021/11/24 06:57:55;;;;;;;17.13;14.43;;;3.30;99.90;;;;;;5016232;28;20195;-79
2021/11/24 07:00:24;;;;;;;16.73;13.53;;;3.30;99.90;;;;;;5013388;28;20403;-79
2021/11/24 07:02:49;;;;;;;19.63;14.37;;;3.30;99.90;;;;;;5017117;28;20206;-78
2021/11/24 07:05:18;;;;;;;15.50;13.87;;;3.30;99.90;;;;;;5012615;28;20184;-80
2021/11/24 07:07:44;;;;;;;19.27;14.87;;;3.20;99.90;;;;;;5004198;28;20176;-80
2021/11/24 07:10:11;;;;;;;23.60;17.00;;;3.20;99.90;;;;;;5002021;28;20187;-78
2021/11/24 07:12:36;;;;;;;17.23;14.30;;;3.20;99.90;;;;;;4993460;28;20187;-78
2021/11/24 07:15:03;;;;;;;17.00;13.63;;;3.20;99.90;;;;;;4999301;28;20548;-78
2021/11/24 07:17:29;;;;;;;16.53;13.93;;;3.20;99.90;;;;;;4998053;28;20179;-78
2021/11/24 07:19:56;;;;;;;17.53;14.40;;;3.20;99.90;;;;;;5003774;28;20571;-79
2021/11/24 07:22:22;;;;;;;15.93;12.83;;;3.20;99.90;;;;;;5012259;28;20214;-80
2021/11/24 07:24:48;;;;;;;18.20;14.97;;;3.20;99.90;;;;;;5009133;28;20203;-79
2021/11/24 07:27:13;;;;;;;18.17;14.83;;;3.20;99.90;;;;;;5015069;28;20179;-79
2021/11/24 07:29:39;;;;;;;15.60;13.30;;;3.40;99.90;;;;;;5015640;28;20180;-79
2021/11/24 07:32:05;;;;;;;16.00;13.20;;;3.30;99.90;;;;;;5001617;28;20272;-79
2021/11/24 07:34:31;;;;;;;14.83;12.93;;;3.30;99.90;;;;;;5001547;28;20231;-80
2021/11/24 07:36:57;;;;;;;16.07;13.87;;;3.30;99.90;;;;;;5000792;28;20542;-80
2021/11/24 07:39:23;;;;;;;18.40;14.63;;;3.30;99.90;;;;;;5011941;28;20185;-79
2021/11/24 07:41:51;;;;;;;16.77;13.27;;;3.30;99.90;;;;;;5015874;28;20203;-81
2021/11/24 07:44:17;;;;;;;16.63;12.87;;;3.20;99.90;;;;;;5024951;28;20207;-79
2021/11/24 07:46:43;;;;;;;17.20;13.73;;;3.90;99.90;;;;;;5012206;28;20734;-80
2021/11/24 07:49:09;;;;;;;17.57;13.27;;;3.20;99.90;;;;;;5016206;28;20260;-80
2021/11/24 07:51:34;;;;;;;15.23;12.03;;;3.20;99.90;;;;;;5019012;28;20203;-78
2021/11/24 07:54:01;;;;;;;15.37;13.23;;;3.30;99.90;;;;;;5027291;28;20291;-79
2021/11/24 07:56:27;;;;;;;16.73;12.57;;;3.30;99.90;;;;;;5014078;28;20190;-80
2021/11/24 07:58:54;;;;;;;16.07;12.93;;;3.20;99.90;;;;;;5007636;28;20188;-79
2021/11/24 08:01:20;;;;;;;15.27;13.07;;;3.20;99.90;;;;;;5017563;28;20200;-79
2021/11/24 08:03:46;;;;;;;19.07;13.13;;;3.20;99.90;;;;;;5021559;28;20298;-80
2021/11/24 08:06:12;;;;;;;16.30;13.13;;;3.30;99.90;;;;;;5006383;28;20176;-80
2021/11/24 08:08:38;;;;;;;15.70;13.43;;;3.30;99.90;;;;;;5009947;28;20184;-80
2021/11/24 08:11:04;;;;;;;16.10;13.33;;;3.30;99.90;;;;;;5012779;28;20255;-79
2021/11/24 08:13:30;;;;;;;15.90;13.60;;;3.30;99.90;;;;;;5006336;28;20281;-79
2021/11/24 08:15:56;;;;;;;15.47;13.07;;;3.40;99.90;;;;;;5005543;28;20181;-79
2021/11/24 08:18:22;;;;;;;17.33;14.43;;;3.70;99.90;;;;;;5007575;28;20188;-80
2021/11/24 08:20:48;;;;;;;15.60;13.13;;;3.30;99.90;;;;;;5024532;28;20257;-79
2021/11/24 08:23:14;;;;;;;15.80;13.03;;;3.50;99.90;;;;;;5008569;28;20734;-80
2021/11/24 08:25:40;;;;;;;14.87;13.07;;;3.50;99.90;;;;;;5003617;28;20204;-79
2021/11/24 08:28:06;;;;;;;16.83;13.27;;;3.40;99.90;;;;;;5005147;28;20217;-79
2021/11/24 08:30:32;;;;;;;13.70;12.30;;;3.40;99.90;;;;;;5006286;28;20188;-79
2021/11/24 08:32:57;;;;;;;17.73;13.93;;;3.40;99.90;;;;;;5005722;28;20232;-79
2021/11/24 08:35:23;;;;;;;15.10;12.97;;;3.40;99.90;;;;;;5006468;28;20188;-81
2021/11/24 08:37:50;;;;;;;17.40;13.53;;;3.40;99.90;;;;;;5015484;28;20189;-80
2021/11/24 08:40:16;;;;;;;16.33;13.20;;;3.40;99.90;;;;;;5020508;28;20211;-79
2021/11/24 08:42:42;;;;;;;15.40;13.23;;;3.50;99.90;;;;;;5008946;28;20184;-79
2021/11/24 08:45:10;;;;;;;17.30;13.67;;;3.50;99.90;;;;;;5004951;28;20193;-81
2021/11/24 08:47:37;;;;;;;15.53;12.30;;;4.10;99.90;;;;;;5003860;28;20176;-80
2021/11/24 08:50:06;;;;;;;16.93;12.93;;;3.50;99.90;;;;;;5017143;28;20181;-80
2021/11/24 08:52:31;;;;;;;20.30;15.23;;;3.50;99.90;;;;;;5009803;28;20251;-79
2021/11/24 08:54:58;;;;;;;17.73;14.80;;;3.50;99.90;;;;;;5024674;28;20717;-78
2021/11/24 08:57:23;;;;;;;16.03;14.30;;;3.50;99.90;;;;;;5013131;28;20622;-81
2021/11/24 08:59:50;;;;;;;19.23;15.13;;;3.50;99.90;;;;;;5013776;28;20205;-80
2021/11/24 09:02:15;;;;;;;23.00;13.43;;;3.50;99.90;;;;;;5018239;28;20188;-79
2021/11/24 09:04:42;;;;;;;15.80;12.87;;;3.40;99.90;;;;;;5000665;28;20577;-79
2021/11/24 09:07:08;;;;;;;15.70;13.23;;;3.50;99.90;;;;;;5003911;28;20189;-79
2021/11/24 09:09:35;;;;;;;15.13;12.73;;;3.50;99.90;;;;;;5000083;28;20184;-79
2021/11/24 09:12:01;;;;;;;15.67;12.70;;;3.50;99.90;;;;;;4998976;28;20172;-79
2021/11/24 09:14:27;;;;;;;14.47;11.77;;;3.50;99.90;;;;;;5004661;28;20205;-80
2021/11/24 09:16:54;;;;;;;16.90;13.23;;;3.50;99.90;;;;;;5015115;28;20213;-80
2021/11/24 09:19:19;;;;;;;14.37;11.90;;;3.40;99.90;;;;;;5011253;28;20184;-78
2021/11/24 09:21:49;;;;;;;16.00;12.87;;;3.40;99.90;;;;;;5003341;28;20207;-78
2021/11/24 09:24:21;;;;;;;15.67;13.03;;;3.40;99.90;;;;;;5010922;28;20220;-77
2021/11/24 09:29:36;;;;;;;15.13;12.10;;;3.40;99.90;;;;;;5012207;28;20202;-76
2021/11/24 09:32:04;;;;;;;16.60;12.60;;;3.40;99.90;;;;;;5014530;28;20203;-77
2021/11/24 09:34:31;;;;;;;14.03;12.10;;;3.40;99.90;;;;;;5004369;28;20199;-78
2021/11/24 09:36:58;;;;;;;19.10;13.37;;;3.40;99.90;;;;;;5009541;28;20239;-79
2021/11/24 09:39:24;;;;;;;15.67;12.87;;;3.50;99.90;;;;;;5003685;28;20180;-79
2021/11/24 09:41:52;;;;;;;15.13;12.30;;;3.50;99.90;;;;;;5002733;28;20208;-79
2021/11/24 09:44:19;;;;;;;14.63;11.93;;;3.60;99.90;;;;;;5003160;28;20223;-79
2021/11/24 09:46:48;;;;;;;17.00;12.70;;;4.30;99.90;;;;;;5003040;28;20185;-79
2021/11/24 09:49:15;;;;;;;13.10;11.63;;;3.50;99.90;;;;;;5005596;28;20594;-79
2021/11/24 09:51:42;;;;;;;16.37;13.23;;;3.70;99.90;;;;;;5009799;28;20191;-79
2021/11/24 09:54:11;;;;;;;15.50;12.70;;;4.00;99.90;;;;;;5005667;28;20231;-79
2021/11/24 09:56:40;;;;;;;17.70;14.13;;;3.60;99.90;;;;;;5011151;28;20194;-79
2021/11/24 09:59:07;;;;;;;15.97;12.87;;;3.50;99.90;;;;;;5004198;28;20242;-79
2021/11/24 10:01:33;;;;;;;17.27;13.27;;;3.60;99.90;;;;;;5003254;28;20199;-79
2021/11/24 10:04:02;;;;;;;16.80;14.00;;;3.60;99.90;;;;;;5000082;28;20213;-80
2021/11/24 10:06:28;;;;;;;19.17;13.63;;;3.60;99.90;;;;;;5002340;28;20182;-79
2021/11/24 10:08:54;;;;;;;16.27;13.00;;;3.70;99.90;;;;;;4998902;28;20199;-79
2021/11/24 10:11:20;;;;;;;21.13;14.57;;;3.70;99.90;;;;;;4998983;28;20198;-80
2021/11/24 10:13:50;;;;;;;17.20;14.47;;;3.70;99.90;;;;;;5007177;28;20629;-79
2021/11/24 10:16:25;;;;;;;19.20;15.20;;;3.70;99.90;;;;;;5006824;28;20184;-79
2021/11/24 10:19:11;;;;;;;20.87;12.37;;;3.60;99.90;;;;;;5004527;28;20190;-79
2021/11/24 10:22:19;;;;;;;17.87;13.97;;;3.60;99.90;;;;;;5017097;28;20200;-79
2021/11/24 10:24:44;;;;;;;30.77;19.93;;;3.70;99.90;;;;;;5021665;28;20221;-79
2021/11/24 10:27:17;;;;;;;35.20;24.20;;;3.70;99.90;;;;;;5010166;28;20212;-78
2021/11/24 10:29:54;;;;;;;15.77;12.93;;;3.70;99.90;;;;;;5013056;28;20177;-78
2021/11/24 10:32:31;;;;;;;17.57;13.87;;;3.70;99.90;;;;;;5016102;28;20198;-78
2021/11/24 10:34:58;;;;;;;54.03;32.27;;;3.70;99.90;;;;;;5017055;28;20198;-79
2021/11/24 10:37:25;;;;;;;15.57;12.47;;;3.70;99.90;;;;;;5016547;28;20527;-77
2021/11/24 10:40:08;;;;;;;23.40;14.43;;;3.70;99.90;;;;;;5022965;28;20210;-79
2021/11/24 10:42:39;;;;;;;36.00;23.10;;;3.70;99.90;;;;;;5007637;28;20201;-79
2021/11/24 10:45:13;;;;;;;39.13;23.40;;;3.70;99.90;;;;;;5012187;28;21377;-79
2021/11/24 10:47:59;;;;;;;23.10;16.67;;;3.70;99.90;;;;;;5007464;28;20187;-78
2021/11/24 10:50:28;;;;;;;27.80;18.10;;;3.70;99.90;;;;;;5002188;28;20171;-78
2021/11/24 10:52:54;;;;;;;15.23;12.07;;;3.90;99.90;;;;;;5002092;28;20178;-78
2021/11/24 10:55:32;;;;;;;33.60;20.93;;;3.60;99.90;;;;;;5009635;28;20180;-78
2021/11/24 10:58:06;;;;;;;19.60;14.50;;;3.60;99.90;;;;;;5004054;28;20179;-79
2021/11/24 11:01:21;;;;;;;22.93;16.53;;;3.60;99.90;;;;;;5005156;28;20192;-79
2021/11/24 11:03:48;;;;;;;17.63;13.60;;;3.70;99.90;;;;;;4925449;29;20207;-79
2021/11/24 11:06:34;;;;;;;17.43;14.30;;;3.60;99.90;;;;;;4944148;29;20233;-79
2021/11/24 11:09:00;;;;;;;17.23;12.53;;;3.70;99.90;;;;;;4986766;28;20212;-79
2021/11/24 11:11:31;;;;;;;18.90;14.20;;;3.70;99.90;;;;;;5005450;28;20340;-78
2021/11/24 11:14:16;;;;;;;16.30;11.90;;;3.80;99.90;;;;;;5006935;28;20854;-79
2021/11/24 11:16:47;;;;;;;15.33;12.63;;;3.70;99.90;;;;;;5024259;28;20187;-80
2021/11/24 11:19:43;;;;;;;15.37;12.60;;;3.80;99.90;;;;;;5017774;28;20184;-80
2021/11/24 11:22:11;;;;;;;14.67;12.63;;;3.80;99.90;;;;;;5009490;28;20172;-78
2021/11/24 11:24:36;;;;;;;30.57;18.63;;;3.90;99.90;;;;;;5001442;28;20286;-78
2021/11/24 11:27:02;;;;;;;21.60;15.20;;;3.90;99.90;;;;;;5000590;28;20262;-78
2021/11/24 11:29:28;;;;;;;46.37;22.97;;;3.90;99.90;;;;;;4998728;28;20239;-78
2021/11/24 11:31:55;;;;;;;31.97;18.73;;;3.90;99.90;;;;;;5000358;28;20222;-78
2021/11/24 11:34:21;;;;;;;81.40;35.47;;;4.00;99.90;;;;;;4999866;28;20694;-78
2021/11/24 11:36:48;;;;;;;69.30;31.97;;;3.80;99.90;;;;;;5000930;28;20704;-78
2021/11/24 11:39:14;;;;;;;33.73;19.63;;;3.90;99.90;;;;;;4999404;28;20185;-79
2021/11/24 11:41:42;;;;;;;22.70;15.93;;;3.80;99.90;;;;;;5009460;28;20197;-79
2021/11/24 11:44:13;;;;;;;25.33;17.40;;;3.80;99.90;;;;;;5038405;23;20227;-79
2021/11/24 11:46:44;;;;;;;37.87;21.70;;;3.70;99.90;;;;;;5016063;28;20639;-78
2021/11/24 11:49:16;;;;;;;30.13;19.87;;;3.70;99.90;;;;;;5007528;28;20180;-79
2021/11/24 11:51:44;;;;;;;27.07;18.67;;;3.90;99.90;;;;;;5011494;28;20556;-79
2021/11/24 11:54:12;;;;;;;27.73;18.17;;;3.90;99.90;;;;;;5013640;28;20281;-78
2021/11/24 11:56:45;;;;;;;23.53;16.77;;;3.70;99.90;;;;;;5008629;28;20644;-79
2021/11/24 11:59:19;;;;;;;21.23;15.90;;;3.70;99.90;;;;;;5025846;28;20682;-78
2021/11/24 12:01:49;;;;;;;21.20;15.43;;;3.80;99.90;;;;;;5002291;28;20295;-77
2021/11/24 12:04:20;;;;;;;20.63;15.70;;;3.90;99.90;;;;;;5008827;28;20662;-77
2021/11/24 12:06:51;;;;;;;21.17;14.87;;;4.00;99.90;;;;;;5007404;28;20670;-77
2021/11/24 12:09:22;;;;;;;23.40;16.77;;;4.00;99.90;;;;;;5005177;28;20210;-79
2021/11/24 12:12:08;;;;;;;24.90;16.80;;;4.10;99.90;;;;;;5009650;28;20666;-78
2021/11/24 12:14:44;;;;;;;24.20;16.80;;;4.00;99.90;;;;;;5001848;28;20231;-78
2021/11/24 12:20:16;;;;;;;24.30;16.60;;;4.10;99.90;;;;;;5005307;28;20199;-78
2021/11/24 12:22:54;;;;;;;23.87;16.77;;;4.20;99.90;;;;;;5013819;28;20174;-78
2021/11/24 12:28:24;;;;;;;27.00;17.27;;;4.20;99.90;;;;;;5005873;28;20177;-78
2021/11/24 12:33:53;;;;;;;22.13;15.30;;;4.50;99.90;;;;;;5007946;28;20181;-79
2021/11/24 12:36:24;;;;;;;20.63;15.73;;;4.10;99.90;;;;;;5004372;28;20556;-79
2021/11/24 12:38:55;;;;;;;42.00;24.60;;;3.90;99.90;;;;;;5005235;28;20199;-78
2021/11/24 12:41:25;;;;;;;25.50;16.87;;;4.00;99.90;;;;;;5010513;28;20300;-78
2021/11/24 12:44:16;;;;;;;22.00;16.50;;;4.00;99.90;;;;;;5003800;28;20202;-78
2021/11/24 12:46:43;;;;;;;20.03;14.53;;;3.90;99.90;;;;;;5003775;28;20213;-79
2021/11/24 12:49:11;;;;;;;46.77;23.80;;;4.00;99.90;;;;;;5001586;28;20241;-78